createdAt,value
2022-10-20T00:02:13.864Z,12.30
2022-10-20T00:05:02.100Z,11.00
2022-10-20T00:07:49.571Z,11.00
2022-10-20T00:10:37.400Z,11.00
2022-10-20T00:13:26.743Z,10.90
2022-10-20T00:16:15.635Z,10.90
2022-10-20T00:19:03.733Z,11.00
2022-10-20T00:21:53.756Z,9.20
2022-10-20T00:24:41.555Z,10.80
2022-10-20T00:27:29.258Z,10.80
2022-10-20T00:30:20.355Z,10.90
2022-10-20T00:33:10.201Z,11.10
2022-10-20T00:35:59.769Z,11.00
2022-10-20T00:38:47.503Z,11.00
2022-10-20T00:41:35.240Z,11.00
2022-10-20T00:44:41.558Z,10.80
2022-10-20T00:47:39.143Z,10.90
2022-10-20T00:50:29.055Z,10.90
2022-10-20T00:53:17.816Z,10.90
2022-10-20T00:56:05.992Z,10.90
2022-10-20T00:58:53.970Z,10.80
2022-10-20T01:01:42.220Z,10.90
2022-10-20T01:04:31.971Z,10.80
2022-10-20T01:07:19.715Z,10.80
2022-10-20T01:10:08.389Z,10.80
2022-10-20T01:13:01.029Z,10.80
2022-10-20T01:15:52.954Z,10.80
2022-10-20T01:18:45.709Z,10.80
2022-10-20T01:21:43.194Z,10.80
2022-10-20T01:24:53.763Z,10.70
2022-10-20T01:27:44.046Z,10.50
2022-10-20T01:30:36.826Z,10.80
2022-10-20T01:33:30.866Z,10.80
2022-10-20T01:36:22.837Z,10.60
2022-10-20T01:39:14.042Z,10.90
2022-10-20T01:42:04.723Z,10.80
2022-10-20T01:44:55.572Z,10.90
2022-10-20T01:47:43.766Z,10.80
2022-10-20T01:50:32.037Z,10.90
2022-10-20T01:53:20.963Z,10.90
2022-10-20T01:56:13.765Z,10.90
2022-10-20T01:59:15.599Z,10.90
2022-10-20T02:02:13.033Z,10.90
2022-10-20T02:05:08.225Z,10.90
2022-10-20T02:07:59.684Z,10.90
2022-10-20T02:10:47.938Z,11.00
2022-10-20T02:13:37.446Z,11.00
2022-10-20T02:16:28.632Z,11.00
2022-10-20T02:19:19.852Z,11.00
2022-10-20T02:22:09.028Z,11.00
2022-10-20T02:24:56.686Z,11.00
2022-10-20T02:27:47.785Z,11.40
2022-10-20T02:30:36.169Z,11.00
2022-10-20T02:33:24.410Z,11.00
2022-10-20T02:36:17.689Z,11.00
2022-10-20T02:39:05.356Z,11.00
2022-10-20T02:41:53.397Z,11.20
2022-10-20T02:44:41.526Z,11.00
2022-10-20T02:47:29.415Z,11.00
2022-10-20T02:50:17.527Z,11.00
2022-10-20T02:53:06.935Z,11.00
2022-10-20T02:55:54.723Z,10.90
2022-10-20T02:58:42.756Z,11.00
2022-10-20T03:01:31.040Z,10.50
2022-10-20T03:04:18.665Z,10.90
2022-10-20T03:07:06.730Z,10.90
2022-10-20T03:09:55.502Z,10.80
2022-10-20T03:12:43.548Z,10.80
2022-10-20T03:15:34.360Z,10.70
2022-10-20T03:18:22.041Z,10.70
2022-10-20T03:21:09.687Z,11.00
2022-10-20T03:23:57.346Z,10.60
2022-10-20T03:26:46.299Z,10.60
2022-10-20T03:29:35.347Z,10.30
2022-10-20T03:32:25.819Z,10.60
2022-10-20T03:35:13.919Z,10.60
2022-10-20T03:38:02.944Z,10.70
2022-10-20T03:40:50.675Z,10.70
2022-10-20T03:43:41.036Z,10.80
2022-10-20T03:46:29.230Z,10.40
2022-10-20T03:49:17.067Z,10.80
2022-10-20T03:52:04.587Z,10.90
2022-10-20T03:54:52.576Z,10.90
2022-10-20T03:57:40.655Z,10.90
2022-10-20T04:00:30.276Z,11.00
2022-10-20T04:03:17.719Z,11.00
2022-10-20T04:06:05.435Z,11.00
2022-10-20T04:08:53.278Z,10.90
2022-10-20T04:11:40.907Z,10.90
2022-10-20T04:14:31.037Z,11.00
2022-10-20T04:17:20.323Z,10.80
2022-10-20T04:20:08.244Z,10.90
2022-10-20T04:22:56.055Z,10.70
2022-10-20T04:25:45.982Z,10.60
2022-10-20T04:28:33.833Z,10.60
2022-10-20T04:31:21.357Z,10.50
2022-10-20T04:34:10.868Z,10.40
2022-10-20T04:36:59.304Z,10.40
2022-10-20T04:39:47.059Z,10.40
2022-10-20T04:42:34.290Z,10.30
2022-10-20T04:45:21.950Z,10.30
2022-10-20T04:48:09.887Z,10.10
2022-10-20T04:51:06.706Z,10.10
2022-10-20T04:53:55.091Z,10.00
2022-10-20T04:56:42.796Z,10.10
2022-10-20T04:59:32.270Z,10.00
2022-10-20T05:02:20.537Z,10.00
2022-10-20T05:05:08.060Z,9.90
2022-10-20T05:07:58.142Z,10.20
2022-10-20T05:10:45.792Z,10.50
2022-10-20T05:13:33.417Z,9.90
2022-10-20T05:16:20.687Z,10.00
2022-10-20T05:19:08.448Z,9.20
2022-10-20T05:21:56.825Z,10.10
2022-10-20T05:24:46.111Z,10.10
2022-10-20T05:27:33.249Z,10.10
2022-10-20T05:30:21.351Z,10.20
2022-10-20T05:33:09.711Z,10.20
2022-10-20T05:35:58.119Z,10.60
2022-10-20T05:38:45.737Z,10.30
2022-10-20T05:41:38.721Z,10.40
2022-10-20T05:44:26.991Z,10.40
2022-10-20T05:47:14.304Z,10.40
2022-10-20T05:50:02.121Z,10.40
2022-10-20T05:52:49.376Z,10.50
2022-10-20T05:55:37.620Z,10.50
2022-10-20T05:58:26.937Z,10.70
2022-10-20T06:01:17.848Z,10.60
2022-10-20T06:04:05.456Z,10.60
2022-10-20T06:06:53.722Z,10.80
2022-10-20T06:09:41.799Z,10.70
2022-10-20T06:12:29.601Z,10.70
2022-10-20T06:15:18.669Z,10.70
2022-10-20T06:18:06.815Z,10.90
2022-10-20T06:20:59.857Z,11.00
2022-10-20T06:23:47.471Z,11.10
2022-10-20T06:26:36.569Z,10.90
2022-10-20T06:29:24.695Z,11.10
2022-10-20T06:35:01.213Z,11.20
2022-10-20T06:37:48.754Z,11.20
2022-10-20T06:40:36.834Z,11.20
2022-10-20T06:43:27.393Z,11.30
2022-10-20T06:46:15.801Z,11.30
2022-10-20T06:49:05.484Z,11.30
2022-10-20T06:51:54.156Z,11.40
2022-10-20T06:54:41.774Z,11.40
2022-10-20T06:57:29.187Z,11.40
2022-10-20T07:00:16.755Z,11.50
2022-10-20T07:03:04.363Z,11.50
2022-10-20T07:05:53.507Z,11.50
2022-10-20T07:08:41.700Z,11.60
2022-10-20T07:11:30.114Z,11.60
2022-10-20T07:14:18.378Z,11.70
2022-10-20T07:17:05.996Z,10.70
2022-10-20T07:19:55.328Z,11.60
2022-10-20T07:22:45.143Z,11.90
2022-10-20T07:25:32.424Z,11.70
2022-10-20T07:28:21.866Z,11.70
2022-10-20T07:31:11.148Z,11.70
2022-10-20T07:34:12.819Z,11.80
2022-10-20T07:37:01.781Z,14.10
2022-10-20T07:39:50.988Z,11.90
2022-10-20T07:42:39.011Z,12.00
2022-10-20T07:45:27.442Z,12.40
2022-10-20T07:48:15.070Z,12.10
2022-10-20T07:51:17.335Z,12.20
2022-10-20T07:54:07.329Z,12.20
2022-10-20T07:56:56.982Z,12.20
2022-10-20T07:59:45.315Z,12.30
2022-10-20T08:02:33.209Z,12.40
2022-10-20T08:05:24.350Z,12.50
2022-10-20T08:08:11.960Z,12.60
2022-10-20T08:10:59.519Z,12.70
2022-10-20T08:13:49.155Z,12.80
2022-10-20T08:16:45.868Z,12.90
2022-10-20T08:19:36.531Z,12.90
2022-10-20T08:22:25.724Z,13.10
2022-10-20T08:25:15.118Z,13.00
2022-10-20T08:28:03.108Z,13.00
2022-10-20T08:30:52.308Z,12.90
2022-10-20T08:33:41.171Z,13.10
2022-10-20T08:36:29.022Z,13.20
2022-10-20T08:39:16.493Z,13.20
2022-10-20T08:42:09.448Z,13.10
2022-10-20T08:44:59.988Z,13.10
2022-10-20T08:47:49.850Z,13.20
2022-10-20T08:50:38.102Z,13.30
2022-10-20T08:53:27.766Z,13.10
2022-10-20T08:56:15.687Z,13.10
2022-10-20T08:59:04.537Z,13.30
2022-10-20T09:01:52.529Z,13.10
2022-10-20T09:04:44.214Z,13.10
2022-10-20T09:07:34.562Z,13.20
2022-10-20T09:10:26.753Z,13.20
2022-10-20T09:13:17.270Z,12.80
2022-10-20T09:16:06.964Z,13.10
2022-10-20T09:18:57.431Z,13.10
2022-10-20T09:21:47.584Z,13.10
2022-10-20T09:24:36.890Z,13.10
2022-10-20T09:27:26.015Z,13.50
2022-10-20T09:30:18.382Z,13.20
2022-10-20T09:33:21.099Z,13.20
2022-10-20T09:36:14.140Z,13.40
2022-10-20T09:39:06.613Z,13.40
2022-10-20T09:44:50.280Z,13.50
2022-10-20T09:47:46.244Z,13.30
2022-10-20T09:50:35.863Z,13.50
2022-10-20T09:53:26.882Z,13.50
2022-10-20T09:56:27.267Z,13.60
2022-10-20T09:59:24.320Z,13.80
2022-10-20T10:02:30.654Z,12.90
2022-10-20T10:05:20.674Z,13.80
2022-10-20T10:08:14.521Z,13.90
2022-10-20T10:11:03.654Z,13.90
2022-10-20T10:13:57.202Z,14.00
2022-10-20T10:16:47.474Z,14.00
2022-10-20T10:19:35.550Z,15.40
2022-10-20T10:22:23.391Z,15.30
2022-10-20T10:25:16.633Z,15.90
2022-10-20T10:28:08.860Z,14.10
2022-10-20T10:31:08.690Z,14.80
2022-10-20T10:34:00.110Z,14.30
2022-10-20T10:36:48.022Z,14.80
2022-10-20T10:39:37.020Z,14.80
2022-10-20T10:42:33.973Z,15.00
2022-10-20T10:45:28.103Z,15.00
2022-10-20T10:48:45.849Z,15.10
2022-10-20T10:51:37.336Z,15.20
2022-10-20T10:54:41.490Z,15.20
2022-10-20T10:57:32.596Z,15.40
2022-10-20T11:00:23.476Z,15.50
2022-10-20T11:03:21.924Z,15.60
2022-10-20T11:06:17.572Z,15.80
2022-10-20T11:09:12.564Z,15.80
2022-10-20T11:12:07.578Z,16.10
2022-10-20T11:15:02.970Z,16.20
2022-10-20T11:17:54.054Z,16.10
2022-10-20T11:20:46.646Z,16.10
2022-10-20T11:24:03.774Z,16.20
2022-10-20T11:26:54.623Z,16.30
2022-10-20T11:29:43.940Z,16.60
2022-10-20T11:35:26.691Z,16.10
2022-10-20T11:38:17.688Z,16.60
2022-10-20T11:41:07.557Z,16.60
2022-10-20T11:43:59.664Z,16.80
2022-10-20T11:46:48.799Z,17.00
2022-10-20T11:49:40.018Z,17.00
2022-10-20T11:52:49.112Z,17.00
2022-10-20T11:55:43.974Z,17.10
2022-10-20T11:58:47.367Z,17.20
2022-10-20T12:01:42.652Z,16.90
2022-10-20T12:04:39.790Z,17.40
2022-10-20T12:07:46.290Z,17.20
2022-10-20T12:10:40.201Z,17.60
2022-10-20T12:13:31.845Z,17.20
2022-10-20T12:16:34.465Z,18.00
2022-10-20T12:19:24.506Z,17.80
2022-10-20T12:22:30.752Z,18.10
2022-10-20T12:25:34.977Z,17.90
2022-10-20T12:28:35.277Z,17.90
2022-10-20T12:31:23.304Z,17.90
2022-10-20T12:34:23.388Z,18.00
2022-10-20T12:37:18.366Z,19.80
2022-10-20T12:40:20.874Z,17.80
2022-10-20T12:43:24.128Z,17.70
2022-10-20T12:46:13.567Z,18.10
2022-10-20T12:49:06.698Z,18.60
2022-10-20T12:51:59.084Z,18.00
2022-10-20T12:54:56.551Z,17.90
2022-10-20T12:57:46.273Z,18.20
2022-10-20T13:00:52.931Z,18.00
2022-10-20T13:03:46.806Z,17.70
2022-10-20T13:06:41.551Z,18.00
2022-10-20T13:09:32.908Z,18.20
2022-10-20T13:12:30.766Z,18.10
2022-10-20T13:15:20.642Z,18.20
2022-10-20T13:18:16.258Z,18.20
2022-10-20T13:21:08.733Z,18.50
2022-10-20T13:23:58.788Z,18.50
2022-10-20T13:26:48.760Z,18.50
2022-10-20T13:29:38.419Z,18.60
2022-10-20T13:32:28.791Z,18.60
2022-10-20T13:35:21.486Z,18.70
2022-10-20T13:38:16.239Z,18.80
2022-10-20T13:41:06.010Z,18.80
2022-10-20T13:44:03.017Z,18.80
2022-10-20T13:46:58.025Z,18.20
2022-10-20T13:54:24.243Z,18.90
2022-10-20T13:57:26.706Z,19.10
2022-10-20T14:00:19.267Z,19.20
2022-10-20T14:03:18.100Z,19.10
2022-10-20T14:06:05.779Z,19.70
2022-10-20T14:08:54.665Z,19.10
2022-10-20T14:11:43.458Z,18.80
2022-10-20T14:14:31.533Z,19.00
2022-10-20T14:17:20.997Z,19.00
2022-10-20T14:20:19.132Z,18.80
2022-10-20T14:23:08.031Z,18.70
2022-10-20T14:25:57.388Z,18.80
2022-10-20T14:28:46.571Z,18.90
2022-10-20T14:31:34.118Z,18.70
2022-10-20T14:34:22.931Z,18.80
2022-10-20T14:37:25.433Z,18.70
2022-10-20T14:40:20.722Z,18.70
2022-10-20T14:43:14.384Z,18.70
2022-10-20T14:46:03.225Z,18.60
2022-10-20T14:48:58.386Z,18.70
2022-10-20T14:51:48.400Z,18.60
2022-10-20T14:54:39.340Z,18.60
2022-10-20T14:57:47.940Z,18.40
2022-10-20T15:00:36.706Z,18.30
2022-10-20T15:03:24.637Z,18.20
2022-10-20T15:06:15.234Z,18.10
2022-10-20T15:09:05.516Z,18.10
2022-10-20T15:11:54.589Z,18.00
2022-10-20T15:14:43.086Z,18.00
2022-10-20T15:17:36.170Z,17.90
2022-10-20T15:20:32.468Z,17.90
2022-10-20T15:23:22.938Z,17.90
2022-10-20T15:26:11.927Z,17.90
2022-10-20T15:29:04.403Z,17.90
2022-10-20T15:31:51.762Z,17.80
2022-10-20T15:34:39.452Z,17.80
2022-10-20T15:37:27.647Z,17.60
2022-10-20T15:40:15.867Z,18.30
2022-10-20T15:43:05.020Z,17.60
2022-10-20T15:45:56.168Z,17.60
2022-10-20T15:48:45.666Z,17.50
2022-10-20T15:51:35.525Z,17.50
2022-10-20T15:54:23.932Z,17.40
2022-10-20T15:57:14.477Z,17.40
2022-10-20T16:00:05.467Z,17.10
2022-10-20T16:02:57.077Z,17.20
2022-10-20T16:05:44.575Z,17.30
2022-10-20T16:08:32.519Z,17.50
2022-10-20T16:11:20.838Z,17.20
2022-10-20T16:14:13.735Z,17.20
2022-10-20T16:17:01.460Z,17.00
2022-10-20T16:19:51.488Z,17.00
2022-10-20T16:22:39.076Z,16.60
2022-10-20T16:25:27.384Z,16.80
2022-10-20T16:28:15.468Z,16.80
2022-10-20T16:31:05.374Z,16.70
2022-10-20T16:33:56.077Z,16.70
2022-10-20T16:36:46.187Z,16.60
2022-10-20T16:39:34.499Z,16.50
2022-10-20T16:42:22.160Z,16.60
2022-10-20T16:45:13.235Z,16.50
2022-10-20T16:48:03.273Z,16.40
2022-10-20T16:50:51.187Z,16.40
2022-10-20T16:53:40.248Z,16.30
2022-10-20T16:56:28.785Z,16.30
2022-10-20T16:59:16.330Z,17.00
2022-10-20T17:02:04.536Z,16.30
2022-10-20T17:04:52.303Z,16.40
2022-10-20T17:07:40.785Z,16.20
2022-10-20T17:10:30.674Z,16.10
2022-10-20T17:13:18.721Z,16.00
2022-10-20T17:16:06.865Z,16.10
2022-10-20T17:18:54.918Z,16.00
2022-10-20T17:21:44.831Z,15.90
2022-10-20T17:24:32.248Z,16.00
2022-10-20T17:27:25.987Z,15.90
2022-10-20T17:30:16.586Z,15.70
2022-10-20T17:33:04.037Z,15.70
2022-10-20T17:35:51.652Z,15.70
2022-10-20T17:38:40.639Z,15.70
2022-10-20T17:41:28.313Z,15.80
2022-10-20T17:44:19.046Z,15.80
2022-10-20T17:47:07.197Z,15.80
2022-10-20T17:49:56.004Z,15.80
2022-10-20T17:52:44.412Z,15.90
2022-10-20T17:55:35.918Z,15.80
2022-10-20T17:58:23.842Z,15.80
2022-10-20T18:01:14.187Z,15.80
2022-10-20T18:04:02.198Z,15.80
2022-10-20T18:06:50.699Z,15.80
2022-10-20T18:09:41.888Z,15.80
2022-10-20T18:12:32.020Z,15.80
2022-10-20T18:15:19.437Z,15.80
2022-10-20T18:18:08.959Z,15.80
2022-10-20T18:21:00.074Z,15.80
2022-10-20T18:23:49.161Z,15.80
2022-10-20T18:26:38.071Z,15.80
2022-10-20T18:29:26.172Z,15.80
2022-10-20T18:32:13.771Z,15.80
2022-10-20T18:35:04.726Z,15.70
2022-10-20T18:37:57.670Z,15.70
2022-10-20T18:40:45.729Z,16.60
2022-10-20T18:43:35.096Z,15.70
2022-10-20T18:46:23.438Z,15.60
2022-10-20T18:49:12.821Z,15.70
2022-10-20T18:52:03.235Z,15.60
2022-10-20T18:54:51.062Z,15.70
2022-10-20T18:57:40.300Z,15.50
2022-10-20T19:00:28.357Z,15.50
2022-10-20T19:03:16.984Z,15.40
2022-10-20T19:06:07.127Z,15.40
2022-10-20T19:08:58.372Z,15.40
2022-10-20T19:14:39.180Z,15.20
2022-10-20T19:17:27.004Z,15.30
2022-10-20T19:20:15.588Z,15.20
2022-10-20T19:23:06.413Z,15.30
2022-10-20T19:26:06.988Z,15.20
2022-10-20T19:28:58.575Z,15.20
2022-10-20T19:31:49.892Z,15.70
2022-10-20T19:34:41.300Z,15.10
2022-10-20T19:37:28.829Z,15.10
2022-10-20T19:40:19.139Z,15.10
2022-10-20T19:43:08.094Z,15.00
2022-10-20T19:45:55.946Z,15.00
2022-10-20T19:48:44.170Z,15.10
2022-10-20T19:51:34.661Z,15.20
2022-10-20T19:54:24.177Z,15.10
2022-10-20T19:57:12.091Z,15.30
2022-10-20T20:00:06.113Z,15.20
2022-10-20T20:02:53.870Z,15.10
2022-10-20T20:05:41.962Z,15.10
2022-10-20T20:08:30.344Z,15.20
2022-10-20T20:11:26.532Z,15.20
2022-10-20T20:14:16.274Z,15.20
2022-10-20T20:17:07.428Z,15.20
2022-10-20T20:20:01.363Z,15.20
2022-10-20T20:22:49.313Z,15.10
2022-10-20T20:25:39.640Z,15.20
2022-10-20T20:28:30.985Z,15.20
2022-10-20T20:31:22.825Z,15.10
2022-10-20T20:34:11.945Z,15.20
2022-10-20T20:36:59.368Z,15.40
2022-10-20T20:39:47.151Z,15.40
2022-10-20T20:42:34.816Z,15.20
2022-10-20T20:45:22.905Z,15.30
2022-10-20T20:48:10.875Z,15.20
2022-10-20T20:51:07.955Z,15.20
2022-10-20T20:54:03.242Z,15.30
2022-10-20T20:56:51.863Z,15.20
2022-10-20T20:59:39.794Z,15.40
2022-10-20T21:02:35.605Z,15.30
2022-10-20T21:05:24.439Z,15.30
2022-10-20T21:08:13.471Z,15.40
2022-10-20T21:11:13.199Z,15.20
2022-10-20T21:14:01.022Z,16.00
2022-10-20T21:16:49.404Z,15.40
2022-10-20T21:19:38.384Z,15.40
2022-10-20T21:22:27.037Z,15.60
2022-10-20T21:25:16.083Z,15.70
2022-10-20T21:28:03.782Z,15.80
2022-10-20T21:30:52.218Z,15.50
2022-10-20T21:33:40.742Z,15.50
2022-10-20T21:36:32.861Z,15.50
2022-10-20T21:39:21.231Z,15.50
2022-10-20T21:42:11.306Z,15.60
2022-10-20T21:45:02.420Z,15.70
2022-10-20T21:47:53.820Z,17.50
2022-10-20T21:50:42.291Z,15.60
2022-10-20T21:53:30.032Z,15.70
2022-10-20T21:56:18.535Z,15.70
2022-10-20T21:59:09.502Z,15.70
2022-10-20T22:01:57.765Z,15.70
2022-10-20T22:04:48.085Z,15.70
2022-10-20T22:07:36.459Z,15.70
2022-10-20T22:10:24.288Z,15.30
2022-10-20T22:13:12.787Z,15.70
2022-10-20T22:16:02.227Z,15.70
2022-10-20T22:18:55.188Z,15.70
2022-10-20T22:21:44.894Z,15.60
2022-10-20T22:24:35.838Z,14.30
2022-10-20T22:27:31.431Z,15.60
2022-10-20T22:30:31.316Z,15.60
2022-10-20T22:33:20.503Z,15.60
2022-10-20T22:36:11.418Z,15.70
2022-10-20T22:38:59.377Z,15.50
2022-10-20T22:41:47.230Z,15.50
2022-10-20T22:44:34.615Z,15.40
2022-10-20T22:47:22.831Z,15.50
2022-10-20T22:50:12.479Z,15.50
2022-10-20T22:53:00.669Z,16.00
2022-10-20T22:55:48.867Z,15.40
2022-10-20T22:58:36.371Z,15.40
2022-10-20T23:01:24.324Z,15.30
2022-10-20T23:04:12.167Z,15.30
2022-10-20T23:07:04.231Z,15.10
2022-10-20T23:09:55.021Z,15.20
2022-10-20T23:12:42.964Z,15.20
2022-10-20T23:15:30.118Z,14.50
2022-10-20T23:18:21.152Z,15.10
2022-10-20T23:21:09.446Z,15.10
2022-10-20T23:23:59.276Z,15.10
2022-10-20T23:26:49.574Z,15.10
2022-10-20T23:29:37.526Z,14.10
2022-10-20T23:32:25.248Z,15.00
2022-10-20T23:35:13.532Z,14.70
2022-10-20T23:38:01.386Z,15.00
2022-10-20T23:40:50.251Z,15.00
2022-10-20T23:43:37.950Z,14.90
2022-10-20T23:46:28.035Z,14.90
2022-10-20T23:49:16.258Z,14.90
2022-10-20T23:52:04.885Z,15.00
2022-10-20T23:54:52.615Z,14.90
2022-10-20T23:57:41.431Z,14.90
